Time;durP1;ratioP1;P1;durP2;ratioP2;P2;SDS_P1;SDS_P2;PMS_P1;PMS_P2;Temp;Humidity;BMP_temperature;BMP_pressure;BME280_temperature;BME280_humidity;BME280_pressure;Samples;Min_cycle;Max_cycle;Signal;HPM_P1;HPM_P2
2023/10/03 00:00:36;;;;;;;2.00;1.40;;;;;;;;;;5104089;28;20030;-57
2023/10/03 00:03:04;;;;;;;2.33;1.77;;;;;;;;;;5106512;28;20024;-57
2023/10/03 00:05:34;;;;;;;2.50;1.80;;;;;;;;;;5108831;28;20020;-57
2023/10/03 00:08:04;;;;;;;3.53;2.07;;;;;;;;;;5105666;28;20032;-58
2023/10/03 00:10:32;;;;;;;3.43;1.90;;;;;;;;;;5095357;28;20109;-58
2023/10/03 00:12:59;;;;;;;2.47;1.20;;;;;;;;;;5095008;28;20027;-57
2023/10/03 00:15:27;;;;;;;2.03;1.43;;;;;;;;;;5091946;28;20036;-58
2023/10/03 00:17:55;;;;;;;2.10;1.30;;;;;;;;;;5089772;28;20055;-57
2023/10/03 00:20:22;;;;;;;1.27;0.93;;;;;;;;;;5090082;28;20040;-57
2023/10/03 00:22:50;;;;;;;3.97;2.13;;;;;;;;;;5090015;28;20050;-58
2023/10/03 00:25:24;;;;;;;2.80;1.80;;;;;;;;;;5091913;28;20060;-57
2023/10/03 00:27:52;;;;;;;4.25;1.90;;;;;;;;;;5094869;28;20429;-57
2023/10/03 00:30:25;;;;;;;1.83;1.27;;;;;;;;;;5094542;28;20379;-58
2023/10/03 00:32:53;;;;;;;2.23;1.53;;;;;;;;;;5094780;28;20028;-58
2023/10/03 00:35:20;;;;;;;1.80;1.37;;;;;;;;;;5094725;28;20024;-57
2023/10/03 00:37:53;;;;;;;1.07;0.90;;;;;;;;;;5092144;28;20040;-58
2023/10/03 00:42:48;;;;;;;2.07;1.40;;;;;;;;;;5089395;28;20123;-58
2023/10/03 00:45:19;;;;;;;3.80;2.20;;;;;;;;;;5089647;28;20090;-58
2023/10/03 00:47:48;;;;;;;3.20;2.30;;;;;;;;;;5091404;28;20099;-57
2023/10/03 00:50:16;;;;;;;2.90;1.90;;;;;;;;;;5094360;28;20092;-57
2023/10/03 00:52:45;;;;;;;5.80;3.40;;;;;;;;;;5094428;28;20039;-57
2023/10/03 00:55:13;;;;;;;2.37;1.67;;;;;;;;;;5093779;28;20028;-57
2023/10/03 00:57:39;;;;;;;3.70;2.33;;;;;;;;;;5094016;28;20448;-58
2023/10/03 01:00:16;;;;;;;9.77;2.77;;;;;;;;;;5092084;28;20103;-57
2023/10/03 01:02:52;;;;;;;5.40;2.87;;;;;;;;;;5089281;28;20028;-57
2023/10/03 01:05:19;;;;;;;3.87;2.07;;;;;;;;;;5089045;28;20028;-58
2023/10/03 01:07:49;;;;;;;4.43;2.23;;;;;;;;;;5089029;28;20050;-57
2023/10/03 01:10:21;;;;;;;2.50;1.87;;;;;;;;;;5091186;28;20493;-57
2023/10/03 01:12:48;;;;;;;9.80;2.00;;;;;;;;;;5093877;28;20020;-58
2023/10/03 01:15:22;;;;;;;3.20;2.13;;;;;;;;;;5093374;28;20081;-58
2023/10/03 01:17:53;;;;;;;3.97;2.67;;;;;;;;;;5093668;28;20076;-57
2023/10/03 01:20:29;;;;;;;4.20;2.33;;;;;;;;;;5092901;28;20021;-58
2023/10/03 01:22:57;;;;;;;2.43;1.97;;;;;;;;;;5091086;28;20031;-58
2023/10/03 01:25:27;;;;;;;3.33;2.27;;;;;;;;;;5088803;28;20086;-58
2023/10/03 01:27:56;;;;;;;2.87;1.70;;;;;;;;;;5087834;28;20115;-57
2023/10/03 01:30:23;;;;;;;3.53;2.43;;;;;;;;;;5088862;28;20024;-58
2023/10/03 01:32:52;;;;;;;2.77;1.70;;;;;;;;;;5090800;28;20039;-58
2023/10/03 01:35:22;;;;;;;3.10;1.83;;;;;;;;;;5093561;28;20023;-57
2023/10/03 01:37:51;;;;;;;4.13;2.07;;;;;;;;;;5093369;28;20070;-57
2023/10/03 01:40:19;;;;;;;2.90;2.00;;;;;;;;;;5093419;28;20440;-58
2023/10/03 01:42:46;;;;;;;5.33;1.73;;;;;;;;;;5093194;28;20352;-58
2023/10/03 01:45:17;;;;;;;2.57;1.50;;;;;;;;;;5090542;28;20024;-58
2023/10/03 01:47:49;;;;;;;3.13;2.07;;;;;;;;;;5088478;28;20028;-57
2023/10/03 01:50:19;;;;;;;3.10;2.30;;;;;;;;;;5087961;28;20489;-57
2023/10/03 01:52:46;;;;;;;2.93;2.07;;;;;;;;;;5088350;28;20406;-58
2023/10/03 01:55:14;;;;;;;3.10;2.27;;;;;;;;;;5090306;28;20071;-57
2023/10/03 01:57:41;;;;;;;2.57;1.80;;;;;;;;;;5092784;28;20032;-57
2023/10/03 02:00:26;;;;;;;5.07;1.90;;;;;;;;;;5092859;28;20032;-57
2023/10/03 02:02:53;;;;;;;;;;;;;;;;;;5093635;28;20424;-57
2023/10/03 02:05:21;;;;;;;2.17;1.60;;;;;;;;;;5092980;28;19908;-58
2023/10/03 02:07:48;;;;;;;2.33;1.57;;;;;;;;;;5090238;28;20047;-57
2023/10/03 02:10:15;;;;;;;2.47;1.50;;;;;;;;;;5088143;28;20490;-57
2023/10/03 02:12:51;;;;;;;2.47;1.30;;;;;;;;;;5087273;28;20032;-57
2023/10/03 02:15:20;;;;;;;2.60;1.90;;;;;;;;;;5088078;28;20461;-57
2023/10/03 02:17:49;;;;;;;3.27;1.53;;;;;;;;;;5089935;28;20028;-57
2023/10/03 02:20:19;;;;;;;2.47;1.73;;;;;;;;;;5092616;28;20060;-57
2023/10/03 02:22:53;;;;;;;1.73;1.43;;;;;;;;;;5092445;28;20101;-58
2023/10/03 02:25:22;;;;;;;1.87;1.27;;;;;;;;;;5092444;28;20071;-57
2023/10/03 02:27:50;;;;;;;2.20;1.37;;;;;;;;;;5092443;28;20144;-57
2023/10/03 02:30:23;;;;;;;3.57;1.77;;;;;;;;;;5090012;28;20027;-57
2023/10/03 02:32:53;;;;;;;2.43;1.80;;;;;;;;;;5087464;28;20543;-58
2023/10/03 02:35:23;;;;;;;2.10;1.57;;;;;;;;;;5087262;28;20024;-57
2023/10/03 02:37:57;;;;;;;4.30;2.17;;;;;;;;;;5087555;28;20035;-58
2023/10/03 02:40:28;;;;;;;2.87;2.23;;;;;;;;;;5090164;28;20024;-57
2023/10/03 02:42:55;;;;;;;3.03;2.23;;;;;;;;;;5092417;28;20020;-58
2023/10/03 02:45:23;;;;;;;3.13;1.50;;;;;;;;;;5092606;28;20046;-58
2023/10/03 02:47:56;;;;;;;2.57;1.73;;;;;;;;;;5092014;28;20082;-58
2023/10/03 02:50:32;;;;;;;2.67;2.00;;;;;;;;;;5092335;28;20031;-58
2023/10/03 02:52:59;;;;;;;1.70;1.30;;;;;;;;;;5089323;28;20032;-58
2023/10/03 02:55:25;;;;;;;2.37;1.50;;;;;;;;;;5087290;28;20425;-57
2023/10/03 02:57:52;;;;;;;2.67;1.50;;;;;;;;;;5087214;28;20108;-58
2023/10/03 03:00:19;;;;;;;1.93;1.43;;;;;;;;;;5086745;28;20494;-58
2023/10/03 03:02:47;;;;;;;2.80;1.57;;;;;;;;;;5089265;28;20470;-57
2023/10/03 03:05:21;;;;;;;2.50;1.57;;;;;;;;;;5092150;28;20028;-57
2023/10/03 03:07:49;;;;;;;1.92;1.50;;;;;;;;;;5091866;28;20355;-57
2023/10/03 03:10:17;;;;;;;2.63;1.83;;;;;;;;;;5092088;28;20103;-58
2023/10/03 03:12:45;;;;;;;2.30;1.80;;;;;;;;;;5071893;28;20020;-58
2023/10/03 03:15:17;;;;;;;3.17;1.90;;;;;;;;;;5069350;28;20060;-57
2023/10/03 03:17:47;;;;;;;2.07;1.57;;;;;;;;;;5066762;28;20044;-58
2023/10/03 03:20:50;;;;;;;2.43;1.73;;;;;;;;;;5067132;28;20360;-57
2023/10/03 03:23:09;;;;;;;1.90;1.27;;;;;;;;;;5071658;28;20061;-58
2023/10/03 03:25:38;;;;;;;2.53;1.80;;;;;;;;;;5089743;28;20032;-58
2023/10/03 03:28:13;;;;;;;5.17;1.77;;;;;;;;;;5092113;28;20036;-57
2023/10/03 03:30:46;;;;;;;2.30;1.77;;;;;;;;;;5091743;28;20059;-57
2023/10/03 03:33:20;;;;;;;2.27;1.70;;;;;;;;;;5091907;28;20482;-57
2023/10/03 03:35:50;;;;;;;2.17;1.73;;;;;;;;;;5092037;28;20051;-57
2023/10/03 03:38:18;;;;;;;3.53;1.87;;;;;;;;;;5088154;28;20032;-58
2023/10/03 03:40:58;;;;;;;7.63;2.37;;;;;;;;;;5087052;28;20540;-57
2023/10/03 03:43:25;;;;;;;3.57;1.93;;;;;;;;;;5087372;28;20032;-57
2023/10/03 03:45:52;;;;;;;4.87;2.03;;;;;;;;;;5090540;28;20497;-57
2023/10/03 03:48:21;;;;;;;4.60;2.90;;;;;;;;;;5094136;28;20047;-57
2023/10/03 03:50:51;;;;;;;1.97;1.50;;;;;;;;;;5095566;28;20075;-57
2023/10/03 03:53:21;;;;;;;3.33;1.90;;;;;;;;;;5095560;28;20027;-57
2023/10/03 03:55:49;;;;;;;3.87;1.93;;;;;;;;;;5095583;28;20024;-57
2023/10/03 03:58:18;;;;;;;2.53;1.73;;;;;;;;;;5094000;28;20035;-57
2023/10/03 04:00:50;;;;;;;2.90;1.60;;;;;;;;;;5091723;28;20547;-58
2023/10/03 04:03:18;;;;;;;3.87;1.47;;;;;;;;;;5090360;28;20042;-57
2023/10/03 04:05:49;;;;;;;8.17;1.20;;;;;;;;;;5090368;28;20051;-57
2023/10/03 04:08:18;;;;;;;2.90;2.10;;;;;;;;;;5089757;28;20501;-58
2023/10/03 04:10:45;;;;;;;5.43;2.27;;;;;;;;;;5093527;28;20521;-58
2023/10/03 04:13:16;;;;;;;5.07;1.80;;;;;;;;;;5093399;28;20024;-58
2023/10/03 04:15:46;;;;;;;2.13;1.60;;;;;;;;;;5095273;28;20110;-57
2023/10/03 04:18:14;;;;;;;1.80;1.27;;;;;;;;;;5094951;28;20047;-57
2023/10/03 04:20:44;;;;;;;2.47;1.63;;;;;;;;;;5094667;28;20031;-58
2023/10/03 04:23:11;;;;;;;3.53;1.83;;;;;;;;;;5091124;28;20028;-57
2023/10/03 04:25:39;;;;;;;3.13;1.57;;;;;;;;;;5089957;28;20040;-57
2023/10/03 04:28:08;;;;;;;2.30;1.63;;;;;;;;;;5089700;28;20474;-57
2023/10/03 04:30:36;;;;;;;1.97;1.70;;;;;;;;;;5089607;28;20032;-58
2023/10/03 04:33:03;;;;;;;2.60;1.93;;;;;;;;;;5092417;28;20063;-57
2023/10/03 04:35:29;;;;;;;2.17;1.37;;;;;;;;;;5094699;28;20024;-57
2023/10/03 04:37:57;;;;;;;2.17;1.57;;;;;;;;;;5094209;28;20032;-57
2023/10/03 04:40:31;;;;;;;1.97;1.50;;;;;;;;;;5094512;28;20446;-58
2023/10/03 04:42:58;;;;;;;1.67;1.27;;;;;;;;;;5094607;28;20028;-57
2023/10/03 04:45:25;;;;;;;2.27;1.60;;;;;;;;;;5090115;28;20046;-57
2023/10/03 04:47:52;;;;;;;1.87;1.50;;;;;;;;;;5089794;28;20024;-57
2023/10/03 04:50:24;;;;;;;2.17;1.37;;;;;;;;;;5089524;28;20475;-58
2023/10/03 04:52:51;;;;;;;2.90;1.90;;;;;;;;;;5089739;28;20584;-57
2023/10/03 04:55:18;;;;;;;2.83;1.77;;;;;;;;;;5091659;28;20035;-57
2023/10/03 04:57:45;;;;;;;2.77;1.70;;;;;;;;;;5093765;28;20395;-58
2023/10/03 05:00:15;;;;;;;6.27;2.03;;;;;;;;;;5093334;28;20028;-57
2023/10/03 05:02:49;;;;;;;2.93;1.87;;;;;;;;;;5094202;28;20057;-58
2023/10/03 05:05:25;;;;;;;3.93;2.40;;;;;;;;;;5094143;28;20043;-57
2023/10/03 05:07:53;;;;;;;3.90;2.43;;;;;;;;;;5091123;28;20024;-57
2023/10/03 05:10:20;;;;;;;3.87;2.63;;;;;;;;;;5088920;28;20111;-57
2023/10/03 05:12:48;;;;;;;4.40;2.80;;;;;;;;;;5088901;28;20445;-57
2023/10/03 05:15:16;;;;;;;2.70;1.97;;;;;;;;;;5088823;28;20386;-57
2023/10/03 05:17:46;;;;;;;4.47;2.50;;;;;;;;;;5091447;28;20032;-57
2023/10/03 05:20:13;;;;;;;5.80;2.83;;;;;;;;;;5093720;28;20474;-57
2023/10/03 05:22:45;;;;;;;2.83;2.33;;;;;;;;;;5093811;28;20024;-57
2023/10/03 05:25:13;;;;;;;2.13;1.70;;;;;;;;;;5093731;28;20055;-57
2023/10/03 05:27:43;;;;;;;2.07;1.60;;;;;;;;;;5093737;28;20030;-58
2023/10/03 05:30:10;;;;;;;3.07;2.03;;;;;;;;;;5090126;28;20407;-57
2023/10/03 05:32:37;;;;;;;3.57;2.50;;;;;;;;;;5088822;28;20028;-57
2023/10/03 05:35:05;;;;;;;3.90;2.50;;;;;;;;;;5088642;28;20073;-57
2023/10/03 05:37:35;;;;;;;3.47;1.97;;;;;;;;;;5088677;28;20066;-58
2023/10/03 05:40:20;;;;;;;3.87;2.00;;;;;;;;;;5090353;28;20116;-58
2023/10/03 05:42:47;;;;;;;2.25;1.67;;;;;;;;;;5093223;28;20032;-57
2023/10/03 05:45:14;;;;;;;2.03;1.50;;;;;;;;;;5093345;28;20035;-57
2023/10/03 05:47:45;;;;;;;2.60;2.17;;;;;;;;;;5093391;28;20023;-57
2023/10/03 05:50:14;;;;;;;1.77;1.43;;;;;;;;;;5093045;28;20053;-57
2023/10/03 05:52:43;;;;;;;3.73;1.60;;;;;;;;;;5090238;28;20043;-57
2023/10/03 05:55:10;;;;;;;1.90;1.40;;;;;;;;;;5088318;28;20395;-57
2023/10/03 05:57:39;;;;;;;3.50;2.17;;;;;;;;;;5087797;28;20109;-57
2023/10/03 06:00:09;;;;;;;2.03;1.50;;;;;;;;;;5087836;28;20028;-57
2023/10/03 06:02:42;;;;;;;3.43;2.20;;;;;;;;;;5090653;28;20046;-57
2023/10/03 06:05:08;;;;;;;9.83;1.77;;;;;;;;;;5092647;28;20110;-58
2023/10/03 06:07:41;;;;;;;7.70;2.20;;;;;;;;;;5092587;28;20024;-57
2023/10/03 06:10:10;;;;;;;4.47;2.10;;;;;;;;;;5092679;28;20067;-57
2023/10/03 06:12:37;;;;;;;1.97;1.30;;;;;;;;;;5092666;28;20114;-57
2023/10/03 06:15:05;;;;;;;2.83;1.87;;;;;;;;;;5090133;28;20376;-57
2023/10/03 06:17:35;;;;;;;2.53;1.77;;;;;;;;;;5087654;28;20039;-57
2023/10/03 06:20:03;;;;;;;5.20;2.80;;;;;;;;;;5087779;28;20032;-58
2023/10/03 06:22:32;;;;;;;1.60;1.30;;;;;;;;;;5087620;28;20498;-57
2023/10/03 06:24:59;;;;;;;4.73;1.80;;;;;;;;;;5090063;28;20035;-57
2023/10/03 06:27:29;;;;;;;2.73;1.90;;;;;;;;;;5092258;28;20031;-57
2023/10/03 06:29:56;;;;;;;3.53;2.40;;;;;;;;;;5092637;28;20490;-57
2023/10/03 06:32:23;;;;;;;3.27;1.90;;;;;;;;;;5092182;28;20431;-58
2023/10/03 06:34:50;;;;;;;2.13;1.33;;;;;;;;;;5092539;28;20084;-57
2023/10/03 06:37:16;;;;;;;2.30;1.77;;;;;;;;;;5089966;28;20043;-57
2023/10/03 06:39:43;;;;;;;2.13;1.60;;;;;;;;;;5087510;28;20031;-58
2023/10/03 06:42:10;;;;;;;4.30;1.67;;;;;;;;;;5087236;28;20466;-58
2023/10/03 06:44:37;;;;;;;2.07;1.73;;;;;;;;;;5087162;28;20020;-57
2023/10/03 06:47:04;;;;;;;2.80;1.97;;;;;;;;;;5088908;28;20035;-57
2023/10/03 06:49:31;;;;;;;2.13;1.37;;;;;;;;;;5092638;28;20348;-57
2023/10/03 06:52:00;;;;;;;3.90;1.77;;;;;;;;;;5092038;28;20081;-57
2023/10/03 06:54:27;;;;;;;2.07;1.53;;;;;;;;;;5092324;28;20032;-57
2023/10/03 06:56:54;;;;;;;1.57;1.27;;;;;;;;;;5092119;28;20028;-57
2023/10/03 06:59:20;;;;;;;1.83;1.27;;;;;;;;;;5090676;28;20112;-57
2023/10/03 07:01:47;;;;;;;1.37;1.03;;;;;;;;;;5086411;28;20121;-57
2023/10/03 07:04:14;;;;;;;4.77;1.73;;;;;;;;;;5087244;28;20024;-57
2023/10/03 07:06:40;;;;;;;4.47;1.83;;;;;;;;;;5086624;28;20036;-57
2023/10/03 07:09:10;;;;;;;2.27;1.33;;;;;;;;;;5087898;28;20382;-57
2023/10/03 07:11:37;;;;;;;1.20;1.10;;;;;;;;;;5092113;28;20579;-57
2023/10/03 07:14:04;;;;;;;5.00;1.60;;;;;;;;;;5092046;28;20114;-57
2023/10/03 07:16:37;;;;;;;1.90;1.30;;;;;;;;;;5091657;28;20043;-57
2023/10/03 07:19:04;;;;;;;3.17;1.73;;;;;;;;;;5093888;28;20039;-57
2023/10/03 07:21:34;;;;;;;1.50;1.20;;;;;;;;;;5094885;28;20039;-57
2023/10/03 07:24:00;;;;;;;1.40;1.00;;;;;;;;;;5091220;28;20043;-57
2023/10/03 07:26:27;;;;;;;1.53;1.23;;;;;;;;;;5090995;28;20074;-57
2023/10/03 07:28:59;;;;;;;2.33;1.57;;;;;;;;;;5091177;28;20058;-57
2023/10/03 07:31:26;;;;;;;2.23;1.33;;;;;;;;;;5091527;28;20035;-57
2023/10/03 07:33:54;;;;;;;2.13;1.57;;;;;;;;;;5095430;28;20020;-57
2023/10/03 07:36:21;;;;;;;2.40;1.50;;;;;;;;;;5095487;28;20036;-57
2023/10/03 07:38:48;;;;;;;2.13;1.47;;;;;;;;;;5095783;28;20024;-57
2023/10/03 07:41:19;;;;;;;3.30;2.10;;;;;;;;;;5095821;28;20035;-58
2023/10/03 07:43:52;;;;;;;2.40;1.77;;;;;;;;;;5095124;28;20032;-57
2023/10/03 07:46:22;;;;;;;10.73;1.83;;;;;;;;;;5090534;28;20038;-57
2023/10/03 07:48:52;;;;;;;25.80;1.60;;;;;;;;;;5090341;28;20020;-57
2023/10/03 07:51:20;;;;;;;1.63;1.17;;;;;;;;;;5090535;28;20036;-57
2023/10/03 07:53:51;;;;;;;2.53;1.50;;;;;;;;;;5090968;28;20028;-57
2023/10/03 07:56:25;;;;;;;2.60;1.57;;;;;;;;;;5095187;28;20023;-57
2023/10/03 07:58:55;;;;;;;1.20;0.90;;;;;;;;;;5095472;28;20571;-58
2023/10/03 08:01:25;;;;;;;1.83;1.33;;;;;;;;;;5095053;28;20030;-57
2023/10/03 08:03:55;;;;;;;1.67;1.20;;;;;;;;;;5095139;28;20387;-57
2023/10/03 08:06:26;;;;;;;1.67;1.03;;;;;;;;;;5093875;28;20111;-57
2023/10/03 08:08:55;;;;;;;2.70;1.83;;;;;;;;;;5090222;28;20032;-57
2023/10/03 08:11:28;;;;;;;1.27;1.10;;;;;;;;;;5090264;28;20036;-58
2023/10/03 08:14:15;;;;;;;3.83;1.67;;;;;;;;;;5090096;28;20024;-57
2023/10/03 08:16:43;;;;;;;2.13;1.57;;;;;;;;;;5091065;28;20471;-57
2023/10/03 08:19:25;;;;;;;1.30;1.00;;;;;;;;;;5095248;28;20039;-57
2023/10/03 08:21:55;;;;;;;4.60;1.67;;;;;;;;;;5094960;28;20482;-57
2023/10/03 08:24:25;;;;;;;2.90;1.33;;;;;;;;;;5094620;28;20035;-57
2023/10/03 08:27:01;;;;;;;1.50;0.97;;;;;;;;;;5094314;28;20024;-57
2023/10/03 08:29:28;;;;;;;4.30;1.63;;;;;;;;;;5091895;28;20039;-58
2023/10/03 08:31:59;;;;;;;2.63;1.57;;;;;;;;;;5089951;28;20032;-57
2023/10/03 08:34:28;;;;;;;2.07;1.47;;;;;;;;;;5089923;28;20359;-57
2023/10/03 08:36:58;;;;;;;2.27;1.60;;;;;;;;;;5089314;28;20040;-58
2023/10/03 08:39:26;;;;;;;2.33;1.57;;;;;;;;;;5071601;28;20094;-57
2023/10/03 08:42:00;;;;;;;1.70;1.07;;;;;;;;;;5074495;28;20029;-57
2023/10/03 08:44:31;;;;;;;1.42;1.15;;;;;;;;;;5074448;28;20100;-57
2023/10/03 08:47:00;;;;;;;2.03;1.47;;;;;;;;;;5074932;28;20111;-58
2023/10/03 08:49:38;;;;;;;1.47;0.87;;;;;;;;;;5094289;28;20032;-58
2023/10/03 08:52:06;;;;;;;1.13;0.90;;;;;;;;;;5091513;28;20402;-58
2023/10/03 08:54:37;;;;;;;1.40;0.87;;;;;;;;;;5089177;28;20024;-58
2023/10/03 08:57:10;;;;;;;0.90;0.77;;;;;;;;;;5089054;28;20072;-57
2023/10/03 08:59:41;;;;;;;0.83;0.70;;;;;;;;;;5088926;28;20024;-58
2023/10/03 09:02:11;;;;;;;2.73;1.63;;;;;;;;;;5091369;28;20547;-57
2023/10/03 09:04:39;;;;;;;2.37;1.17;;;;;;;;;;5094074;28;20510;-58
2023/10/03 09:07:09;;;;;;;1.53;1.00;;;;;;;;;;5094286;28;20074;-58
2023/10/03 09:09:42;;;;;;;2.33;1.30;;;;;;;;;;5094133;28;20118;-57
2023/10/03 09:12:12;;;;;;;2.00;1.53;;;;;;;;;;5093548;28;20043;-57
2023/10/03 09:14:39;;;;;;;4.13;1.43;;;;;;;;;;5090220;28;20498;-57
2023/10/03 09:17:06;;;;;;;2.20;1.60;;;;;;;;;;5089121;28;20032;-57
2023/10/03 09:19:44;;;;;;;1.83;1.40;;;;;;;;;;5088906;28;20086;-57
2023/10/03 09:22:11;;;;;;;1.70;1.23;;;;;;;;;;5088294;28;20043;-57
2023/10/03 09:24:43;;;;;;;4.93;2.23;;;;;;;;;;5091865;28;20024;-57
2023/10/03 09:27:17;;;;;;;2.70;1.23;;;;;;;;;;5093949;28;20016;-57
2023/10/03 09:29:49;;;;;;;1.58;1.15;;;;;;;;;;5093612;28;20110;-57
2023/10/03 09:32:19;;;;;;;1.47;1.07;;;;;;;;;;5093355;28;20047;-57
2023/10/03 09:34:48;;;;;;;1.17;1.07;;;;;;;;;;5093591;28;20047;-57
2023/10/03 09:37:17;;;;;;;1.67;1.23;;;;;;;;;;5089926;28;20116;-57
2023/10/03 09:39:49;;;;;;;1.80;1.40;;;;;;;;;;5088732;28;20059;-57
2023/10/03 09:42:16;;;;;;;2.10;1.67;;;;;;;;;;5087417;28;20068;-57
2023/10/03 09:44:57;;;;;;;3.20;1.40;;;;;;;;;;5088436;28;20233;-57
2023/10/03 09:47:30;;;;;;;2.63;1.57;;;;;;;;;;5091814;28;20028;-57
2023/10/03 09:50:08;;;;;;;3.03;1.83;;;;;;;;;;5093337;28;20020;-57
2023/10/03 09:52:36;;;;;;;1.80;1.47;;;;;;;;;;5072891;28;20490;-57
2023/10/03 09:55:17;;;;;;;1.50;1.10;;;;;;;;;;5072838;28;20520;-57
2023/10/03 09:57:51;;;;;;;2.40;1.53;;;;;;;;;;5081230;28;20513;-57
2023/10/03 10:00:41;;;;;;;5.97;1.30;;;;;;;;;;5088304;28;20463;-57
2023/10/03 10:03:10;;;;;;;2.10;1.40;;;;;;;;;;5088153;28;20051;-57
2023/10/03 10:05:39;;;;;;;1.73;1.20;;;;;;;;;;5087723;28;20040;-58
2023/10/03 10:08:12;;;;;;;1.83;1.47;;;;;;;;;;5087604;28;20032;-58
2023/10/03 10:10:41;;;;;;;2.30;1.40;;;;;;;;;;5092937;28;20028;-57
2023/10/03 10:13:34;;;;;;;1.30;1.07;;;;;;;;;;5092657;28;20129;-57
2023/10/03 10:18:45;;;;;;;1.23;1.00;;;;;;;;;;5092446;28;20075;-57
2023/10/03 10:21:21;;;;;;;1.37;1.20;;;;;;;;;;5090511;28;20091;-57
2023/10/03 10:24:06;;;;;;;2.70;1.73;;;;;;;;;;5087714;28;20440;-57
2023/10/03 10:26:34;;;;;;;1.73;1.15;;;;;;;;;;5087782;28;20073;-57
2023/10/03 10:29:14;;;;;;;1.67;1.43;;;;;;;;;;5087891;28;20043;-57
2023/10/03 10:31:49;;;;;;;1.67;1.33;;;;;;;;;;5090216;28;20036;-57
2023/10/03 10:34:20;;;;;;;3.03;1.77;;;;;;;;;;5092352;28;20462;-57
2023/10/03 10:37:15;;;;;;;3.07;1.60;;;;;;;;;;5092453;28;20024;-57
2023/10/03 10:39:50;;;;;;;1.75;1.42;;;;;;;;;;5092579;28;20040;-57
2023/10/03 10:42:20;;;;;;;1.57;1.00;;;;;;;;;;5092571;28;20039;-57
2023/10/03 10:45:13;;;;;;;2.63;1.53;;;;;;;;;;5087727;28;20478;-57
2023/10/03 10:47:51;;;;;;;1.33;0.93;;;;;;;;;;5087479;28;20032;-57
2023/10/03 10:50:26;;;;;;;1.43;1.10;;;;;;;;;;5087280;28;20378;-57
2023/10/03 10:52:57;;;;;;;1.00;0.90;;;;;;;;;;5087325;28;20020;-57
2023/10/03 10:55:25;;;;;;;1.57;1.27;;;;;;;;;;5091417;28;20107;-57
2023/10/03 10:58:07;;;;;;;2.00;1.33;;;;;;;;;;5091645;28;20124;-58
2023/10/03 11:00:34;;;;;;;1.13;1.00;;;;;;;;;;5092340;28;20020;-57
2023/10/03 11:03:02;;;;;;;3.33;1.13;;;;;;;;;;5091771;28;20032;-58
2023/10/03 11:05:47;;;;;;;1.83;1.20;;;;;;;;;;5091195;28;20020;-57
2023/10/03 11:08:14;;;;;;;2.30;1.52;;;;;;;;;;5087337;28;20036;-57
2023/10/03 11:10:54;;;;;;;2.47;1.33;;;;;;;;;;5087194;28;20063;-58
2023/10/03 11:13:24;;;;;;;2.33;1.47;;;;;;;;;;5086581;28;20036;-57
2023/10/03 11:15:52;;;;;;;1.47;1.17;;;;;;;;;;5087548;28;20031;-58
2023/10/03 11:18:27;;;;;;;2.43;1.80;;;;;;;;;;5091554;28;20024;-57
2023/10/03 11:20:55;;;;;;;1.77;1.33;;;;;;;;;;5092121;28;20024;-57
2023/10/03 11:23:23;;;;;;;1.20;1.10;;;;;;;;;;5091982;28;20036;-58
2023/10/03 11:25:59;;;;;;;1.33;1.03;;;;;;;;;;5091960;28;20091;-57
2023/10/03 11:28:29;;;;;;;1.77;1.37;;;;;;;;;;5089889;28;20028;-57
2023/10/03 11:31:02;;;;;;;1.87;1.37;;;;;;;;;;5086844;28;20463;-57
2023/10/03 11:33:29;;;;;;;1.57;1.00;;;;;;;;;;5086769;28;20034;-57
2023/10/03 11:35:55;;;;;;;1.90;1.50;;;;;;;;;;5087081;28;20032;-58
2023/10/03 11:38:22;;;;;;;1.57;1.23;;;;;;;;;;5088289;28;20031;-57
2023/10/03 11:40:50;;;;;;;1.53;1.27;;;;;;;;;;5091983;28;20103;-57
2023/10/03 11:43:23;;;;;;;2.17;1.20;;;;;;;;;;5091541;28;20059;-57
2023/10/03 11:45:56;;;;;;;2.63;1.40;;;;;;;;;;5079790;28;20024;-57
2023/10/03 11:48:23;;;;;;;3.47;1.10;;;;;;;;;;5091717;28;20035;-57
2023/10/03 11:50:50;;;;;;;2.57;1.57;;;;;;;;;;5089837;28;20080;-57
2023/10/03 11:53:18;;;;;;;1.40;1.10;;;;;;;;;;5086593;28;20028;-57
2023/10/03 11:55:45;;;;;;;0.83;0.80;;;;;;;;;;5086852;28;20490;-57
2023/10/03 11:58:12;;;;;;;2.17;1.60;;;;;;;;;;5086735;28;20032;-57
2023/10/03 12:00:45;;;;;;;1.97;1.30;;;;;;;;;;5088067;28;20025;-57
2023/10/03 12:03:12;;;;;;;1.40;1.13;;;;;;;;;;5091385;28;20027;-57
2023/10/03 12:05:42;;;;;;;1.20;0.90;;;;;;;;;;5093733;28;20030;-57
2023/10/03 12:08:10;;;;;;;2.87;1.53;;;;;;;;;;5095394;28;20032;-57
2023/10/03 12:10:36;;;;;;;1.23;0.87;;;;;;;;;;5095171;28;20043;-57
2023/10/03 12:13:03;;;;;;;2.10;1.30;;;;;;;;;;5093769;28;20374;-57
2023/10/03 12:15:30;;;;;;;1.87;1.33;;;;;;;;;;5089863;28;20060;-57
2023/10/03 12:17:58;;;;;;;2.13;1.20;;;;;;;;;;5089795;28;20028;-57
2023/10/03 12:20:25;;;;;;;1.17;0.80;;;;;;;;;;5090258;28;20032;-57
2023/10/03 12:22:53;;;;;;;0.97;0.77;;;;;;;;;;5091045;28;20028;-57
2023/10/03 12:25:24;;;;;;;1.80;1.30;;;;;;;;;;5094924;28;20085;-57
2023/10/03 12:27:51;;;;;;;1.73;1.20;;;;;;;;;;5094555;28;20036;-57
2023/10/03 12:30:18;;;;;;;1.47;1.17;;;;;;;;;;5095075;28;20092;-57
2023/10/03 12:32:49;;;;;;;3.17;1.50;;;;;;;;;;5094702;28;20020;-57
2023/10/03 12:35:17;;;;;;;1.33;1.07;;;;;;;;;;5093361;28;20016;-57
2023/10/03 12:37:44;;;;;;;2.67;1.50;;;;;;;;;;5089297;28;20115;-57
2023/10/03 12:40:16;;;;;;;1.50;1.23;;;;;;;;;;5089805;28;20461;-57
2023/10/03 12:42:50;;;;;;;0.90;0.80;;;;;;;;;;5089775;28;20035;-57
2023/10/03 12:45:17;;;;;;;22.77;2.07;;;;;;;;;;5090833;28;20024;-57
2023/10/03 12:47:47;;;;;;;3.53;1.50;;;;;;;;;;5093804;28;20024;-57
2023/10/03 12:50:21;;;;;;;2.57;1.50;;;;;;;;;;5094524;28;20020;-57
2023/10/03 12:52:48;;;;;;;5.43;1.67;;;;;;;;;;5094422;28;20028;-57
2023/10/03 12:55:15;;;;;;;2.80;1.40;;;;;;;;;;5094609;28;20077;-57
2023/10/03 12:57:42;;;;;;;2.40;1.70;;;;;;;;;;5092307;28;20032;-57
2023/10/03 13:00:12;;;;;;;3.37;1.67;;;;;;;;;;5089542;28;20024;-56
2023/10/03 13:02:42;;;;;;;2.20;1.57;;;;;;;;;;5088946;28;20386;-57
2023/10/03 13:05:12;;;;;;;1.77;1.37;;;;;;;;;;5089243;28;20036;-57
2023/10/03 13:07:42;;;;;;;3.10;2.30;;;;;;;;;;5070061;28;20056;-57
2023/10/03 13:10:12;;;;;;;2.70;1.70;;;;;;;;;;5073644;28;20040;-57
2023/10/03 13:12:42;;;;;;;1.93;1.43;;;;;;;;;;5073871;28;20390;-57
2023/10/03 13:15:16;;;;;;;2.90;1.87;;;;;;;;;;5073226;28;20021;-57
2023/10/03 13:17:43;;;;;;;12.27;1.20;;;;;;;;;;5073756;28;20044;-57
2023/10/03 13:20:13;;;;;;;1.57;1.10;;;;;;;;;;5072185;28;20391;-57
2023/10/03 13:22:40;;;;;;;1.90;1.27;;;;;;;;;;5068667;28;20531;-57
2023/10/03 13:25:11;;;;;;;1.13;0.93;;;;;;;;;;5068689;28;20024;-57
2023/10/03 13:27:37;;;;;;;1.43;1.03;;;;;;;;;;5088236;28;20020;-57
2023/10/03 13:30:09;;;;;;;11.50;1.00;;;;;;;;;;5089085;28;20097;-58
2023/10/03 13:32:39;;;;;;;1.50;0.73;;;;;;;;;;5093714;28;20039;-58
2023/10/03 13:35:07;;;;;;;0.83;0.80;;;;;;;;;;5093745;28;20028;-57
2023/10/03 13:37:35;;;;;;;1.53;1.03;;;;;;;;;;5093308;28;20036;-57
2023/10/03 13:40:05;;;;;;;1.90;1.27;;;;;;;;;;5093500;28;20024;-57
2023/10/03 13:42:32;;;;;;;2.43;1.03;;;;;;;;;;5091515;28;20024;-58
2023/10/03 13:44:59;;;;;;;0.73;0.60;;;;;;;;;;5088392;28;20042;-57
2023/10/03 13:47:26;;;;;;;1.63;1.17;;;;;;;;;;5088375;28;20030;-57
2023/10/03 13:49:52;;;;;;;1.77;1.10;;;;;;;;;;5088512;28;20435;-57
2023/10/03 13:52:20;;;;;;;8.37;1.43;;;;;;;;;;5089189;28;20028;-58
2023/10/03 13:54:47;;;;;;;1.60;0.90;;;;;;;;;;5093179;28;20054;-57
2023/10/03 13:57:15;;;;;;;1.43;0.90;;;;;;;;;;5093132;28;20036;-58
2023/10/03 13:59:45;;;;;;;1.00;0.80;;;;;;;;;;5093036;28;20079;-58
2023/10/03 14:02:12;;;;;;;1.10;0.93;;;;;;;;;;5093191;28;20051;-58
2023/10/03 14:04:39;;;;;;;1.80;1.17;;;;;;;;;;5091468;28;20201;-58
2023/10/03 14:07:06;;;;;;;1.10;0.93;;;;;;;;;;5088153;28;20048;-57
2023/10/03 14:09:32;;;;;;;1.23;0.93;;;;;;;;;;5087610;28;20103;-57
2023/10/03 14:12:05;;;;;;;1.47;1.00;;;;;;;;;;5087970;28;20036;-58
2023/10/03 14:14:35;;;;;;;1.13;0.90;;;;;;;;;;5088457;28;20024;-57
2023/10/03 14:17:01;;;;;;;0.60;0.60;;;;;;;;;;5093135;28;20031;-57
2023/10/03 14:19:29;;;;;;;0.60;0.57;;;;;;;;;;5092301;28;20024;-58
2023/10/03 14:21:56;;;;;;;7.17;1.27;;;;;;;;;;5092692;28;20016;-57
2023/10/03 14:24:22;;;;;;;1.33;0.77;;;;;;;;;;5093039;28;20035;-57
2023/10/03 14:26:49;;;;;;;0.97;0.70;;;;;;;;;;5091702;28;20016;-58
2023/10/03 14:29:16;;;;;;;0.87;0.70;;;;;;;;;;5087273;28;20070;-57
2023/10/03 14:31:42;;;;;;;1.70;0.87;;;;;;;;;;5087138;28;20020;-58
2023/10/03 14:34:10;;;;;;;1.40;1.10;;;;;;;;;;5087126;28;20494;-58
2023/10/03 14:36:36;;;;;;;0.77;0.67;;;;;;;;;;5087557;28;20032;-58
2023/10/03 14:39:04;;;;;;;1.40;0.90;;;;;;;;;;5092298;28;20503;-58
2023/10/03 14:41:31;;;;;;;0.90;0.70;;;;;;;;;;5092153;28;20036;-58
2023/10/03 14:43:57;;;;;;;0.90;0.60;;;;;;;;;;5092500;28;20108;-58
2023/10/03 14:46:24;;;;;;;0.97;0.77;;;;;;;;;;5092755;28;20024;-58
2023/10/03 14:48:51;;;;;;;0.77;0.60;;;;;;;;;;5092424;28;20024;-58
2023/10/03 14:51:17;;;;;;;1.33;0.93;;;;;;;;;;5086955;28;20091;-58
2023/10/03 14:53:46;;;;;;;1.97;0.63;;;;;;;;;;5087236;28;20032;-58
2023/10/03 14:56:13;;;;;;;1.47;0.70;;;;;;;;;;5087171;28;20032;-58
2023/10/03 14:58:40;;;;;;;0.80;0.67;;;;;;;;;;5087512;28;20039;-58
2023/10/03 15:01:06;;;;;;;0.93;0.60;;;;;;;;;;5091317;28;20036;-58
2023/10/03 15:03:33;;;;;;;18.53;1.03;;;;;;;;;;5092347;28;20020;-58